17  °C
Temperature
10  °C
  Dewpoint
   Humidity
Temp | Dewpoint | Humidity
16  km/h
Wind Speed
10  mph
Wind Speed
9  kts
Wind Speed
360°
Due North

Wind Speed
Partly Cloudy
Conditions
Pressure 1022.92 (hPa) - 30.21 (in)
Visibility 6.2 (mi) - 10.0 (km)

Current Conditions
LGNX
Location 6km (3.2mi)
Metar :LGNX 041150Z 36009KT 9999 FEW020 17/10 Q1023
Sun 4th December 13:50 pm

Airport
  Metar Aviation API Data Provided by https://www.checkwx.com/ CSS/SVG/PHP scripts by weather34.com © 2015-2022